sensor_id;sensor_type;location;lat;lon;timestamp;pressure;altitude;pressure_sealevel;temperature;humidity
44027;BME280;29696;55.698;37.460;2023-05-23T00:00:57;99902.63;;;13.39;76.88
44027;BME280;29696;55.698;37.460;2023-05-23T00:03:25;99901.09;;;13.36;76.95
44027;BME280;29696;55.698;37.460;2023-05-23T00:05:52;99902.22;;;13.34;77.28
44027;BME280;29696;55.698;37.460;2023-05-23T00:08:18;99891.88;;;13.31;77.17
44027;BME280;29696;55.698;37.460;2023-05-23T00:10:44;99895.66;;;13.28;77.27
44027;BME280;29696;55.698;37.460;2023-05-23T00:13:11;99896.53;;;13.29;77.65
44027;BME280;29696;55.698;37.460;2023-05-23T00:15:38;99903.78;;;13.27;77.40
44027;BME280;29696;55.698;37.460;2023-05-23T00:18:07;99909.78;;;13.29;77.59
44027;BME280;29696;55.698;37.460;2023-05-23T00:20:37;99909.09;;;13.27;77.39
44027;BME280;29696;55.698;37.460;2023-05-23T00:23:09;99910.09;;;13.26;77.67
44027;BME280;29696;55.698;37.460;2023-05-23T00:25:36;99912.00;;;13.23;77.74
44027;BME280;29696;55.698;37.460;2023-05-23T00:28:03;99908.81;;;13.20;77.74
44027;BME280;29696;55.698;37.460;2023-05-23T00:30:32;99902.97;;;13.16;77.82
44027;BME280;29696;55.698;37.460;2023-05-23T00:33:01;99903.91;;;13.15;77.85
44027;BME280;29696;55.698;37.460;2023-05-23T00:35:28;99903.53;;;13.10;78.09
44027;BME280;29696;55.698;37.460;2023-05-23T00:37:54;99901.72;;;13.11;77.87
44027;BME280;29696;55.698;37.460;2023-05-23T00:40:22;99909.66;;;13.11;77.69
44027;BME280;29696;55.698;37.460;2023-05-23T00:42:48;99907.16;;;13.09;78.48
44027;BME280;29696;55.698;37.460;2023-05-23T00:45:15;99902.00;;;13.08;78.24
44027;BME280;29696;55.698;37.460;2023-05-23T00:47:43;99907.84;;;13.11;77.92
44027;BME280;29696;55.698;37.460;2023-05-23T00:50:12;99901.72;;;13.11;77.90
44027;BME280;29696;55.698;37.460;2023-05-23T00:52:44;99902.66;;;13.10;77.91
44027;BME280;29696;55.698;37.460;2023-05-23T00:55:11;99903.78;;;13.07;77.76
44027;BME280;29696;55.698;37.460;2023-05-23T00:57:38;99898.94;;;13.02;77.93
44027;BME280;29696;55.698;37.460;2023-05-23T01:00:07;99900.75;;;13.02;78.01
44027;BME280;29696;55.698;37.460;2023-05-23T01:02:40;99889.84;;;13.05;78.39
44027;BME280;29696;55.698;37.460;2023-05-23T01:05:09;99901.59;;;13.02;78.59
44027;BME280;29696;55.698;37.460;2023-05-23T01:07:36;99896.41;;;13.01;78.79
44027;BME280;29696;55.698;37.460;2023-05-23T01:10:03;99891.97;;;13.01;78.63
44027;BME280;29696;55.698;37.460;2023-05-23T01:12:50;99894.88;;;13.08;78.20
44027;BME280;29696;55.698;37.460;2023-05-23T01:15:22;99883.84;;;13.03;78.22
44027;BME280;29696;55.698;37.460;2023-05-23T01:18:02;99882.56;;;13.07;77.83
44027;BME280;29696;55.698;37.460;2023-05-23T01:20:35;99881.47;;;13.00;77.43
44027;BME280;29696;55.698;37.460;2023-05-23T01:24:07;99898.47;;;13.17;77.98
44027;BME280;29696;55.698;37.460;2023-05-23T01:29:13;99886.19;;;13.16;76.87
44027;BME280;29696;55.698;37.460;2023-05-23T01:31:45;99878.50;;;13.22;76.64
44027;BME280;29696;55.698;37.460;2023-05-23T01:34:15;99884.47;;;13.24;76.36
44027;BME280;29696;55.698;37.460;2023-05-23T01:36:43;99883.53;;;13.26;76.33
44027;BME280;29696;55.698;37.460;2023-05-23T01:39:10;99878.25;;;13.26;76.35
44027;BME280;29696;55.698;37.460;2023-05-23T01:41:37;99889.53;;;13.28;76.46
44027;BME280;29696;55.698;37.460;2023-05-23T01:44:05;99879.06;;;13.26;76.34
44027;BME280;29696;55.698;37.460;2023-05-23T01:46:33;99892.75;;;13.31;76.12
44027;BME280;29696;55.698;37.460;2023-05-23T01:49:02;99893.00;;;13.38;75.79
44027;BME280;29696;55.698;37.460;2023-05-23T01:51:29;99890.72;;;13.43;74.86
44027;BME280;29696;55.698;37.460;2023-05-23T01:53:56;99889.31;;;13.48;74.33
44027;BME280;29696;55.698;37.460;2023-05-23T01:56:23;99886.22;;;13.53;74.44
44027;BME280;29696;55.698;37.460;2023-05-23T01:58:50;99875.00;;;13.59;74.04
44027;BME280;29696;55.698;37.460;2023-05-23T02:01:17;99876.47;;;13.72;73.32
44027;BME280;29696;55.698;37.460;2023-05-23T02:03:44;99866.88;;;13.88;72.41
44027;BME280;29696;55.698;37.460;2023-05-23T02:06:10;99873.47;;;14.02;71.72
44027;BME280;29696;55.698;37.460;2023-05-23T02:08:37;99878.59;;;14.13;71.20
44027;BME280;29696;55.698;37.460;2023-05-23T02:11:04;99869.88;;;14.21;70.50
44027;BME280;29696;55.698;37.460;2023-05-23T02:13:30;99870.63;;;14.31;70.43
44027;BME280;29696;55.698;37.460;2023-05-23T02:15:57;99868.88;;;14.40;69.24
44027;BME280;29696;55.698;37.460;2023-05-23T02:18:23;99858.88;;;14.52;68.55
44027;BME280;29696;55.698;37.460;2023-05-23T02:21:11;99857.78;;;14.63;67.95
44027;BME280;29696;55.698;37.460;2023-05-23T02:23:38;99869.53;;;14.78;67.58
44027;BME280;29696;55.698;37.460;2023-05-23T02:26:04;99867.44;;;14.90;67.51
44027;BME280;29696;55.698;37.460;2023-05-23T02:28:31;99883.72;;;14.87;67.65
44027;BME280;29696;55.698;37.460;2023-05-23T02:30:57;99859.94;;;14.85;67.48
44027;BME280;29696;55.698;37.460;2023-05-23T02:33:24;99858.31;;;14.92;67.35
44027;BME280;29696;55.698;37.460;2023-05-23T02:35:51;99855.53;;;15.28;65.78
44027;BME280;29696;55.698;37.460;2023-05-23T02:38:18;99842.81;;;15.48;64.17
44027;BME280;29696;55.698;37.460;2023-05-23T02:40:45;99849.13;;;15.47;64.18
44027;BME280;29696;55.698;37.460;2023-05-23T02:43:12;99858.41;;;15.43;63.92
44027;BME280;29696;55.698;37.460;2023-05-23T02:45:38;99855.94;;;15.49;64.03
44027;BME280;29696;55.698;37.460;2023-05-23T02:48:05;99853.81;;;15.61;63.54
44027;BME280;29696;55.698;37.460;2023-05-23T02:50:31;99865.59;;;15.85;62.89
44027;BME280;29696;55.698;37.460;2023-05-23T02:52:58;99858.81;;;16.15;61.84
44027;BME280;29696;55.698;37.460;2023-05-23T02:55:24;99858.69;;;16.25;60.80
44027;BME280;29696;55.698;37.460;2023-05-23T02:57:51;99855.69;;;16.19;60.91
44027;BME280;29696;55.698;37.460;2023-05-23T03:00:17;99864.66;;;16.10;60.64
44027;BME280;29696;55.698;37.460;2023-05-23T03:02:48;99869.28;;;16.00;60.83
44027;BME280;29696;55.698;37.460;2023-05-23T03:05:15;99876.28;;;15.93;60.42
44027;BME280;29696;55.698;37.460;2023-05-23T03:07:42;99856.09;;;15.82;60.33
44027;BME280;29696;55.698;37.460;2023-05-23T03:10:09;99875.75;;;15.81;61.22
44027;BME280;29696;55.698;37.460;2023-05-23T03:12:36;99881.75;;;15.83;60.75
44027;BME280;29696;55.698;37.460;2023-05-23T03:15:03;99870.09;;;15.84;59.92
44027;BME280;29696;55.698;37.460;2023-05-23T03:17:33;99873.59;;;15.85;59.24
44027;BME280;29696;55.698;37.460;2023-05-23T03:19:59;99872.25;;;15.81;60.96
44027;BME280;29696;55.698;37.460;2023-05-23T03:22:26;99876.06;;;15.78;58.79
44027;BME280;29696;55.698;37.460;2023-05-23T03:24:52;99871.91;;;15.75;58.53
44027;BME280;29696;55.698;37.460;2023-05-23T03:27:18;99867.59;;;15.83;58.87
44027;BME280;29696;55.698;37.460;2023-05-23T03:29:45;99870.09;;;15.84;57.26
44027;BME280;29696;55.698;37.460;2023-05-23T03:32:13;99863.28;;;15.90;57.05
44027;BME280;29696;55.698;37.460;2023-05-23T03:34:39;99872.28;;;15.97;56.91
44027;BME280;29696;55.698;37.460;2023-05-23T03:37:06;99872.16;;;16.07;56.78
44027;BME280;29696;55.698;37.460;2023-05-23T03:39:32;99863.69;;;16.19;56.80
44027;BME280;29696;55.698;37.460;2023-05-23T03:41:59;99861.53;;;16.31;56.20
44027;BME280;29696;55.698;37.460;2023-05-23T03:44:25;99868.34;;;16.50;55.86
44027;BME280;29696;55.698;37.460;2023-05-23T03:46:52;99852.38;;;16.66;55.44
44027;BME280;29696;55.698;37.460;2023-05-23T03:49:18;99859.53;;;16.82;53.94
44027;BME280;29696;55.698;37.460;2023-05-23T03:51:45;99864.00;;;16.98;53.56
44027;BME280;29696;55.698;37.460;2023-05-23T03:54:15;99857.31;;;17.10;54.58
44027;BME280;29696;55.698;37.460;2023-05-23T03:56:43;99849.41;;;17.25;54.20
44027;BME280;29696;55.698;37.460;2023-05-23T03:59:09;99849.19;;;17.43;53.88
44027;BME280;29696;55.698;37.460;2023-05-23T04:01:36;99855.53;;;17.50;52.76
44027;BME280;29696;55.698;37.460;2023-05-23T04:04:03;99848.00;;;17.54;52.99
44027;BME280;29696;55.698;37.460;2023-05-23T04:06:36;99852.16;;;17.56;53.12
44027;BME280;29696;55.698;37.460;2023-05-23T04:09:03;99855.69;;;17.49;52.16
44027;BME280;29696;55.698;37.460;2023-05-23T04:11:33;99847.34;;;17.44;53.17
44027;BME280;29696;55.698;37.460;2023-05-23T04:14:00;99856.38;;;17.43;52.97
44027;BME280;29696;55.698;37.460;2023-05-23T04:16:27;99851.06;;;17.34;52.87
44027;BME280;29696;55.698;37.460;2023-05-23T04:18:58;99854.75;;;17.25;53.67
44027;BME280;29696;55.698;37.460;2023-05-23T04:21:25;99854.97;;;17.07;52.46
44027;BME280;29696;55.698;37.460;2023-05-23T04:24:02;99856.69;;;16.92;54.86
44027;BME280;29696;55.698;37.460;2023-05-23T04:26:29;99854.88;;;16.76;54.61
44027;BME280;29696;55.698;37.460;2023-05-23T04:28:56;99873.72;;;16.66;54.24
44027;BME280;29696;55.698;37.460;2023-05-23T04:31:22;99854.19;;;16.50;54.62
44027;BME280;29696;55.698;37.460;2023-05-23T04:33:49;99854.34;;;16.48;55.15
44027;BME280;29696;55.698;37.460;2023-05-23T04:36:17;99849.00;;;16.48;55.01
44027;BME280;29696;55.698;37.460;2023-05-23T04:38:48;99844.50;;;16.57;55.21
44027;BME280;29696;55.698;37.460;2023-05-23T04:41:15;99849.50;;;16.60;55.46
44027;BME280;29696;55.698;37.460;2023-05-23T04:44:05;99859.34;;;16.67;54.59
44027;BME280;29696;55.698;37.460;2023-05-23T04:46:37;99853.53;;;16.72;54.30
44027;BME280;29696;55.698;37.460;2023-05-23T04:49:18;99849.19;;;16.79;53.96
44027;BME280;29696;55.698;37.460;2023-05-23T04:51:47;99857.84;;;16.89;54.19
44027;BME280;29696;55.698;37.460;2023-05-23T04:54:21;99856.53;;;16.94;54.51
44027;BME280;29696;55.698;37.460;2023-05-23T04:56:47;99856.69;;;17.00;54.02
44027;BME280;29696;55.698;37.460;2023-05-23T04:59:16;99856.50;;;17.02;54.05
44027;BME280;29696;55.698;37.460;2023-05-23T05:01:43;99846.47;;;17.04;54.06
44027;BME280;29696;55.698;37.460;2023-05-23T05:04:09;99850.97;;;17.11;53.88
44027;BME280;29696;55.698;37.460;2023-05-23T05:06:36;99845.44;;;17.21;53.96
44027;BME280;29696;55.698;37.460;2023-05-23T05:09:03;99855.09;;;17.30;53.50
44027;BME280;29696;55.698;37.460;2023-05-23T05:11:29;99855.06;;;17.39;53.71
44027;BME280;29696;55.698;37.460;2023-05-23T05:13:56;99859.34;;;17.56;53.46
44027;BME280;29696;55.698;37.460;2023-05-23T05:16:23;99856.06;;;17.77;52.78
44027;BME280;29696;55.698;37.460;2023-05-23T05:18:50;99862.00;;;17.95;52.50
44027;BME280;29696;55.698;37.460;2023-05-23T05:21:18;99874.75;;;18.16;51.07
44027;BME280;29696;55.698;37.460;2023-05-23T05:23:44;99866.19;;;18.21;50.67
44027;BME280;29696;55.698;37.460;2023-05-23T05:26:12;99874.44;;;18.11;50.53
44027;BME280;29696;55.698;37.460;2023-05-23T05:28:39;99879.59;;;17.90;51.24
44027;BME280;29696;55.698;37.460;2023-05-23T05:31:06;99876.00;;;17.58;52.15
44027;BME280;29696;55.698;37.460;2023-05-23T05:33:35;99866.75;;;17.38;52.76
44027;BME280;29696;55.698;37.460;2023-05-23T05:36:08;99882.13;;;17.27;53.16
44027;BME280;29696;55.698;37.460;2023-05-23T05:38:35;99885.84;;;17.10;53.79
44027;BME280;29696;55.698;37.460;2023-05-23T05:41:01;99874.53;;;16.92;54.09
44027;BME280;29696;55.698;37.460;2023-05-23T05:43:33;99870.56;;;16.79;54.98
44027;BME280;29696;55.698;37.460;2023-05-23T05:46:00;99877.88;;;16.77;55.31
44027;BME280;29696;55.698;37.460;2023-05-23T05:48:26;99876.53;;;16.73;55.30
44027;BME280;29696;55.698;37.460;2023-05-23T05:50:55;99891.72;;;16.64;55.44
44027;BME280;29696;55.698;37.460;2023-05-23T05:53:21;99882.03;;;16.63;55.75
44027;BME280;29696;55.698;37.460;2023-05-23T05:55:48;99868.69;;;16.72;55.69
44027;BME280;29696;55.698;37.460;2023-05-23T05:58:14;99865.19;;;16.71;55.61
44027;BME280;29696;55.698;37.460;2023-05-23T06:00:53;99875.41;;;16.76;55.58
44027;BME280;29696;55.698;37.460;2023-05-23T06:03:21;99861.34;;;16.74;55.65
44027;BME280;29696;55.698;37.460;2023-05-23T06:05:53;99879.88;;;16.75;56.04
44027;BME280;29696;55.698;37.460;2023-05-23T06:08:21;99871.38;;;16.80;55.69
44027;BME280;29696;55.698;37.460;2023-05-23T06:10:48;99867.88;;;16.87;55.55
44027;BME280;29696;55.698;37.460;2023-05-23T06:13:16;99865.84;;;16.98;55.31
44027;BME280;29696;55.698;37.460;2023-05-23T06:15:45;99867.34;;;17.08;55.23
44027;BME280;29696;55.698;37.460;2023-05-23T06:18:13;99864.47;;;17.26;55.26
44027;BME280;29696;55.698;37.460;2023-05-23T06:20:39;99865.69;;;17.47;54.72
44027;BME280;29696;55.698;37.460;2023-05-23T06:23:10;99855.09;;;17.78;53.60
44027;BME280;29696;55.698;37.460;2023-05-23T06:25:38;99857.53;;;18.19;53.35
44027;BME280;29696;55.698;37.460;2023-05-23T06:28:06;99844.53;;;18.54;52.42
44027;BME280;29696;55.698;37.460;2023-05-23T06:30:32;99840.81;;;18.78;51.83
44027;BME280;29696;55.698;37.460;2023-05-23T06:33:01;99834.66;;;19.07;50.86
44027;BME280;29696;55.698;37.460;2023-05-23T06:35:28;99832.88;;;19.58;50.06
44027;BME280;29696;55.698;37.460;2023-05-23T06:37:54;99846.66;;;20.28;47.57
44027;BME280;29696;55.698;37.460;2023-05-23T06:40:21;99834.78;;;20.87;47.04
44027;BME280;29696;55.698;37.460;2023-05-23T06:42:49;99838.75;;;22.48;42.95
44027;BME280;29696;55.698;37.460;2023-05-23T06:45:33;99829.81;;;23.14;41.68
44027;BME280;29696;55.698;37.460;2023-05-23T06:48:01;99831.72;;;25.11;37.78
44027;BME280;29696;55.698;37.460;2023-05-23T06:50:28;99837.94;;;26.57;35.18
44027;BME280;29696;55.698;37.460;2023-05-23T06:52:54;99819.66;;;27.35;33.93
44027;BME280;29696;55.698;37.460;2023-05-23T06:55:22;99827.22;;;26.97;33.78
44027;BME280;29696;55.698;37.460;2023-05-23T06:57:49;99813.75;;;27.14;33.24
44027;BME280;29696;55.698;37.460;2023-05-23T07:00:18;99817.91;;;26.81;34.16
44027;BME280;29696;55.698;37.460;2023-05-23T07:03:20;99809.97;;;26.33;34.49
44027;BME280;29696;55.698;37.460;2023-05-23T07:05:46;99794.06;;;27.19;33.26
44027;BME280;29696;55.698;37.460;2023-05-23T07:08:15;99794.47;;;28.08;32.66
44027;BME280;29696;55.698;37.460;2023-05-23T07:10:53;99794.72;;;29.30;31.17
44027;BME280;29696;55.698;37.460;2023-05-23T07:13:28;99793.03;;;30.00;29.00
44027;BME280;29696;55.698;37.460;2023-05-23T07:15:55;99795.84;;;29.56;29.04
44027;BME280;29696;55.698;37.460;2023-05-23T07:18:22;99798.00;;;29.32;29.76
44027;BME280;29696;55.698;37.460;2023-05-23T07:20:48;99793.91;;;28.74;30.82
44027;BME280;29696;55.698;37.460;2023-05-23T07:23:18;99785.25;;;28.77;30.69
44027;BME280;29696;55.698;37.460;2023-05-23T07:25:46;99790.59;;;28.72;30.85
44027;BME280;29696;55.698;37.460;2023-05-23T07:28:22;99787.03;;;27.75;31.67
44027;BME280;29696;55.698;37.460;2023-05-23T07:30:49;99793.28;;;27.59;32.26
44027;BME280;29696;55.698;37.460;2023-05-23T07:33:16;99790.47;;;28.44;31.45
44027;BME280;29696;55.698;37.460;2023-05-23T07:35:44;99785.47;;;29.09;29.91
44027;BME280;29696;55.698;37.460;2023-05-23T07:38:11;99792.84;;;29.57;30.12
44027;BME280;29696;55.698;37.460;2023-05-23T07:40:37;99797.19;;;30.08;29.00
44027;BME280;29696;55.698;37.460;2023-05-23T07:43:05;99796.09;;;30.36;28.56
44027;BME280;29696;55.698;37.460;2023-05-23T07:45:32;99805.31;;;30.02;28.70
44027;BME280;29696;55.698;37.460;2023-05-23T07:48:00;99791.56;;;29.87;28.85
44027;BME280;29696;55.698;37.460;2023-05-23T07:50:29;99794.47;;;29.58;29.37
44027;BME280;29696;55.698;37.460;2023-05-23T07:52:57;99801.16;;;28.85;29.48
44027;BME280;29696;55.698;37.460;2023-05-23T07:55:28;99795.22;;;28.37;30.94
44027;BME280;29696;55.698;37.460;2023-05-23T07:57:55;99794.28;;;27.69;31.68
44027;BME280;29696;55.698;37.460;2023-05-23T08:00:23;99807.63;;;26.95;33.44
44027;BME280;29696;55.698;37.460;2023-05-23T08:02:55;99813.31;;;26.16;34.31
44027;BME280;29696;55.698;37.460;2023-05-23T08:05:27;99815.72;;;25.64;35.68
44027;BME280;29696;55.698;37.460;2023-05-23T08:07:56;99798.38;;;24.73;36.20
44027;BME280;29696;55.698;37.460;2023-05-23T08:10:24;99798.31;;;24.30;38.12
44027;BME280;29696;55.698;37.460;2023-05-23T08:12:56;99814.66;;;24.10;38.07
44027;BME280;29696;55.698;37.460;2023-05-23T08:15:27;99802.03;;;24.04;38.58
44027;BME280;29696;55.698;37.460;2023-05-23T08:18:05;99790.06;;;23.93;38.74
44027;BME280;29696;55.698;37.460;2023-05-23T08:20:32;99798.47;;;23.78;39.20
44027;BME280;29696;55.698;37.460;2023-05-23T08:23:00;99810.03;;;23.85;39.58
44027;BME280;29696;55.698;37.460;2023-05-23T08:25:27;99793.41;;;23.88;40.03
44027;BME280;29696;55.698;37.460;2023-05-23T08:27:59;99799.63;;;23.89;39.65
44027;BME280;29696;55.698;37.460;2023-05-23T08:30:43;99793.91;;;23.79;40.19
44027;BME280;29696;55.698;37.460;2023-05-23T08:33:10;99794.97;;;23.64;40.70
44027;BME280;29696;55.698;37.460;2023-05-23T08:35:39;99787.09;;;23.63;41.13
44027;BME280;29696;55.698;37.460;2023-05-23T08:38:09;99798.41;;;23.40;41.48
44027;BME280;29696;55.698;37.460;2023-05-23T08:40:50;99794.88;;;23.46;41.56
44027;BME280;29696;55.698;37.460;2023-05-23T08:43:22;99791.59;;;23.31;42.02
44027;BME280;29696;55.698;37.460;2023-05-23T08:45:50;99801.16;;;23.27;41.58
44027;BME280;29696;55.698;37.460;2023-05-23T08:48:19;99789.78;;;23.11;42.33
44027;BME280;29696;55.698;37.460;2023-05-23T08:50:49;99793.44;;;23.30;42.20
44027;BME280;29696;55.698;37.460;2023-05-23T08:55:49;99790.44;;;23.58;41.87
44027;BME280;29696;55.698;37.460;2023-05-23T08:58:28;99793.25;;;23.32;41.96
44027;BME280;29696;55.698;37.460;2023-05-23T09:00:58;99791.78;;;23.36;42.41
44027;BME280;29696;55.698;37.460;2023-05-23T09:03:26;99781.50;;;23.13;42.89
44027;BME280;29696;55.698;37.460;2023-05-23T09:06:16;99782.59;;;22.98;43.37
44027;BME280;29696;55.698;37.460;2023-05-23T09:08:46;99775.13;;;23.00;43.22
44027;BME280;29696;55.698;37.460;2023-05-23T09:11:14;99773.22;;;23.08;43.87
44027;BME280;29696;55.698;37.460;2023-05-23T09:13:43;99782.59;;;22.98;43.64
44027;BME280;29696;55.698;37.460;2023-05-23T09:16:15;99787.97;;;22.98;45.03
44027;BME280;29696;55.698;37.460;2023-05-23T09:18:47;99776.97;;;22.87;44.51
44027;BME280;29696;55.698;37.460;2023-05-23T09:21:16;99795.03;;;22.66;45.49
44027;BME280;29696;55.698;37.460;2023-05-23T09:24:02;99802.09;;;22.54;46.78
44027;BME280;29696;55.698;37.460;2023-05-23T09:26:30;99804.38;;;22.17;47.03
44027;BME280;29696;55.698;37.460;2023-05-23T09:28:57;99801.84;;;22.09;47.66
44027;BME280;29696;55.698;37.460;2023-05-23T09:31:25;99815.06;;;22.04;48.06
44027;BME280;29696;55.698;37.460;2023-05-23T09:33:57;99829.34;;;21.98;47.79
44027;BME280;29696;55.698;37.460;2023-05-23T09:36:26;99840.25;;;21.76;49.13
44027;BME280;29696;55.698;37.460;2023-05-23T09:38:55;99817.19;;;21.54;49.72
44027;BME280;29696;55.698;37.460;2023-05-23T09:41:22;99825.16;;;21.34;50.73
44027;BME280;29696;55.698;37.460;2023-05-23T09:43:51;99845.25;;;21.38;51.26
44027;BME280;29696;55.698;37.460;2023-05-23T09:46:19;99832.28;;;21.13;51.67
44027;BME280;29696;55.698;37.460;2023-05-23T09:48:50;99817.84;;;21.21;51.81
44027;BME280;29696;55.698;37.460;2023-05-23T09:51:21;99825.97;;;21.00;52.43
44027;BME280;29696;55.698;37.460;2023-05-23T09:53:49;99819.56;;;20.66;53.00
44027;BME280;29696;55.698;37.460;2023-05-23T09:56:16;99821.41;;;20.65;53.27
44027;BME280;29696;55.698;37.460;2023-05-23T09:58:46;99830.50;;;20.64;53.24
44027;BME280;29696;55.698;37.460;2023-05-23T10:01:13;99824.09;;;20.44;53.68
44027;BME280;29696;55.698;37.460;2023-05-23T10:03:51;99823.63;;;20.55;54.19
44027;BME280;29696;55.698;37.460;2023-05-23T10:06:31;99832.53;;;20.41;55.35
44027;BME280;29696;55.698;37.460;2023-05-23T10:09:03;99818.75;;;20.22;55.78
44027;BME280;29696;55.698;37.460;2023-05-23T10:14:51;99854.06;;;19.68;58.13
44027;BME280;29696;55.698;37.460;2023-05-23T10:17:28;99849.44;;;19.32;60.13
44027;BME280;29696;55.698;37.460;2023-05-23T10:20:00;99849.16;;;18.98;61.41
44027;BME280;29696;55.698;37.460;2023-05-23T10:22:30;99839.88;;;18.70;62.17
44027;BME280;29696;55.698;37.460;2023-05-23T10:24:58;99836.59;;;18.60;62.75
44027;BME280;29696;55.698;37.460;2023-05-23T10:27:25;99852.03;;;18.58;63.20
44027;BME280;29696;55.698;37.460;2023-05-23T10:29:53;99841.38;;;18.50;63.57
44027;BME280;29696;55.698;37.460;2023-05-23T10:32:19;99829.75;;;18.43;64.07
44027;BME280;29696;55.698;37.460;2023-05-23T10:36:02;99841.41;;;18.65;64.23
44027;BME280;29696;55.698;37.460;2023-05-23T10:38:40;99839.56;;;18.65;64.47
44027;BME280;29696;55.698;37.460;2023-05-23T10:41:42;99857.38;;;18.58;65.10
44027;BME280;29696;55.698;37.460;2023-05-23T10:44:17;99841.63;;;18.40;65.67
44027;BME280;29696;55.698;37.460;2023-05-23T10:47:09;99854.09;;;18.48;66.19
44027;BME280;29696;55.698;37.460;2023-05-23T10:49:58;99847.16;;;18.39;66.80
44027;BME280;29696;55.698;37.460;2023-05-23T10:52:26;99837.94;;;18.18;67.78
44027;BME280;29696;55.698;37.460;2023-05-23T10:54:53;99849.19;;;18.14;68.29
44027;BME280;29696;55.698;37.460;2023-05-23T10:57:24;99851.25;;;18.03;68.64
44027;BME280;29696;55.698;37.460;2023-05-23T10:59:52;99843.28;;;17.95;69.77
44027;BME280;29696;55.698;37.460;2023-05-23T11:02:25;99843.47;;;17.94;70.39
44027;BME280;29696;55.698;37.460;2023-05-23T11:05:20;99842.97;;;17.90;71.06
44027;BME280;29696;55.698;37.460;2023-05-23T11:08:26;99848.22;;;17.84;71.86
44027;BME280;29696;55.698;37.460;2023-05-23T11:11:01;99846.63;;;17.58;72.01
44027;BME280;29696;55.698;37.460;2023-05-23T11:13:56;99852.16;;;17.56;72.18
44027;BME280;29696;55.698;37.460;2023-05-23T11:16:45;99841.50;;;17.48;73.49
44027;BME280;29696;55.698;37.460;2023-05-23T11:19:54;99829.66;;;17.43;73.98
44027;BME280;29696;55.698;37.460;2023-05-23T11:22:26;99852.63;;;17.21;74.22
44027;BME280;29696;55.698;37.460;2023-05-23T11:24:54;99842.66;;;17.06;74.92
44027;BME280;29696;55.698;37.460;2023-05-23T11:27:47;99850.31;;;17.09;76.84
44027;BME280;29696;55.698;37.460;2023-05-23T11:30:17;99845.84;;;16.85;77.60
44027;BME280;29696;55.698;37.460;2023-05-23T11:32:52;99842.22;;;16.78;79.03
44027;BME280;29696;55.698;37.460;2023-05-23T11:35:20;99848.84;;;16.66;79.41
44027;BME280;29696;55.698;37.460;2023-05-23T11:37:46;99849.84;;;16.57;80.04
44027;BME280;29696;55.698;37.460;2023-05-23T11:40:30;99855.69;;;16.69;81.23
44027;BME280;29696;55.698;37.460;2023-05-23T11:42:58;99841.69;;;16.58;81.75
44027;BME280;29696;55.698;37.460;2023-05-23T11:45:26;99857.50;;;16.60;81.55
44027;BME280;29696;55.698;37.460;2023-05-23T11:47:53;99857.19;;;16.55;81.31
44027;BME280;29696;55.698;37.460;2023-05-23T11:50:19;99848.53;;;16.44;81.09
44027;BME280;29696;55.698;37.460;2023-05-23T11:52:47;99853.84;;;16.44;82.35
44027;BME280;29696;55.698;37.460;2023-05-23T11:55:21;99848.69;;;16.43;83.43
44027;BME280;29696;55.698;37.460;2023-05-23T11:57:49;99848.84;;;16.41;83.28
44027;BME280;29696;55.698;37.460;2023-05-23T12:00:17;99852.00;;;16.45;83.11
44027;BME280;29696;55.698;37.460;2023-05-23T12:02:45;99836.69;;;16.55;83.78
44027;BME280;29696;55.698;37.460;2023-05-23T12:05:14;99843.53;;;16.58;83.09
44027;BME280;29696;55.698;37.460;2023-05-23T12:07:42;99854.69;;;16.70;82.56
44027;BME280;29696;55.698;37.460;2023-05-23T12:10:10;99840.84;;;16.82;81.59
44027;BME280;29696;55.698;37.460;2023-05-23T12:12:36;99845.66;;;17.03;81.42
44027;BME280;29696;55.698;37.460;2023-05-23T12:15:03;99831.75;;;17.16;80.27
44027;BME280;29696;55.698;37.460;2023-05-23T12:17:32;99836.72;;;17.36;79.92
44027;BME280;29696;55.698;37.460;2023-05-23T12:19:59;99827.63;;;17.53;78.96
44027;BME280;29696;55.698;37.460;2023-05-23T12:22:27;99833.19;;;17.74;77.17
44027;BME280;29696;55.698;37.460;2023-05-23T12:24:54;99833.34;;;17.81;75.60
44027;BME280;29696;55.698;37.460;2023-05-23T12:27:48;99817.44;;;18.11;75.59
44027;BME280;29696;55.698;37.460;2023-05-23T12:30:14;99818.69;;;18.00;74.83
44027;BME280;29696;55.698;37.460;2023-05-23T12:32:44;99818.75;;;18.15;74.21
44027;BME280;29696;55.698;37.460;2023-05-23T12:35:12;99809.53;;;18.17;73.31
44027;BME280;29696;55.698;37.460;2023-05-23T12:37:40;99809.13;;;18.29;74.00
44027;BME280;29696;55.698;37.460;2023-05-23T12:40:15;99811.38;;;18.40;73.49
44027;BME280;29696;55.698;37.460;2023-05-23T12:42:55;99804.22;;;18.55;73.54
44027;BME280;29696;55.698;37.460;2023-05-23T12:45:33;99808.19;;;18.59;72.94
44027;BME280;29696;55.698;37.460;2023-05-23T12:48:00;99806.41;;;18.52;71.78
44027;BME280;29696;55.698;37.460;2023-05-23T12:50:27;99801.81;;;18.60;71.90
44027;BME280;29696;55.698;37.460;2023-05-23T12:52:53;99799.38;;;18.74;72.31
44027;BME280;29696;55.698;37.460;2023-05-23T12:55:20;99794.41;;;18.85;70.91
44027;BME280;29696;55.698;37.460;2023-05-23T12:57:47;99785.56;;;19.00;70.96
44027;BME280;29696;55.698;37.460;2023-05-23T13:00:14;99774.63;;;19.16;70.60
44027;BME280;29696;55.698;37.460;2023-05-23T13:02:40;99779.06;;;19.38;69.13
44027;BME280;29696;55.698;37.460;2023-05-23T13:05:07;99779.47;;;19.57;67.86
44027;BME280;29696;55.698;37.460;2023-05-23T13:07:33;99776.56;;;19.73;66.96
44027;BME280;29696;55.698;37.460;2023-05-23T13:10:00;99771.94;;;19.82;66.51
44027;BME280;29696;55.698;37.460;2023-05-23T13:12:27;99780.63;;;19.84;65.89
44027;BME280;29696;55.698;37.460;2023-05-23T13:14:54;99772.06;;;19.95;66.68